Time;durP1;ratioP1;P1;durP2;ratioP2;P2;SDS_P1;SDS_P2;PMS_P1;PMS_P2;Temp;Humidity;BMP_temperature;BMP_pressure;BME280_temperature;BME280_humidity;BME280_pressure;Samples;Min_cycle;Max_cycle;Signal;HPM_P1;HPM_P2
2022/02/22 00:01:18;;;;;;;4.67;1.20;;;;;;;6.06;87.66;98002.91;5100825;28;20214;-70
2022/02/22 00:03:45;;;;;;;7.53;1.57;;;;;;;6.05;88.42;98024.78;5116752;28;20575;-70
2022/02/22 00:06:13;;;;;;;4.60;1.47;;;;;;;6.06;87.72;98021.25;5116703;28;20221;-71
2022/02/22 00:08:39;;;;;;;4.27;1.37;;;;;;;6.06;87.95;98013.41;5114688;28;20305;-72
2022/02/22 00:11:06;;;;;;;4.13;1.60;;;;;;;6.03;88.16;98010.91;5115031;28;20232;-70
2022/02/22 00:13:32;;;;;;;4.87;1.57;;;;;;;6.01;87.23;98006.69;5115321;28;20214;-71
2022/02/22 00:16:00;;;;;;;4.43;1.30;;;;;;;5.99;88.13;98016.41;5115370;28;20219;-71
2022/02/22 00:18:27;;;;;;;4.27;1.50;;;;;;;6.00;87.68;98018.97;5115174;28;20221;-71
2022/02/22 00:20:54;;;;;;;8.43;1.50;;;;;;;6.00;88.77;98032.06;5114926;28;20210;-71
2022/02/22 00:23:22;;;;;;;4.00;1.40;;;;;;;5.99;89.41;98027.72;5115166;28;20215;-71
2022/02/22 00:25:48;;;;;;;5.10;1.53;;;;;;;5.93;89.59;98033.31;5115109;28;20227;-71
2022/02/22 00:28:19;;;;;;;5.70;1.90;;;;;;;5.93;90.92;98028.06;5114381;28;20211;-71
2022/02/22 00:30:46;;;;;;;5.73;1.97;;;;;;;5.87;90.46;98027.53;5114611;28;20210;-71
2022/02/22 00:33:13;;;;;;;5.73;2.20;;;;;;;5.83;90.81;98045.22;5113343;28;20574;-71
2022/02/22 00:35:39;;;;;;;4.23;1.40;;;;;;;5.82;91.04;98053.16;5114753;28;20214;-71
2022/02/22 00:38:06;;;;;;;6.93;1.87;;;;;;;5.75;90.15;98047.31;5114735;28;20206;-71
2022/02/22 00:40:34;;;;;;;8.70;1.97;;;;;;;5.68;89.30;98064.31;5114790;28;20230;-72
2022/02/22 00:43:00;;;;;;;7.70;1.80;;;;;;;5.56;88.59;98072.78;5115007;28;20219;-71
2022/02/22 00:45:27;;;;;;;4.47;1.90;;;;;;;5.42;90.42;98070.03;5114652;28;20214;-70
2022/02/22 00:47:54;;;;;;;6.63;1.80;;;;;;;5.34;89.24;98080.03;5114620;28;20267;-71
2022/02/22 00:50:20;;;;;;;4.87;1.33;;;;;;;5.35;89.20;98089.59;5114486;28;20214;-71
2022/02/22 00:52:46;;;;;;;4.47;1.60;;;;;;;5.42;90.15;98092.75;5114731;28;20213;-71
2022/02/22 00:55:13;;;;;;;7.07;2.10;;;;;;;5.38;90.27;98105.16;5114674;28;20214;-71
2022/02/22 00:57:43;;;;;;;3.73;1.60;;;;;;;5.56;89.67;98113.91;5114684;28;20214;-72
2022/02/22 01:00:13;;;;;;;5.33;1.77;;;;;;;5.61;89.31;98107.50;5112503;28;20791;-73
2022/02/22 01:02:39;;;;;;;6.07;1.70;;;;;;;5.64;88.18;98109.97;5101513;28;20210;-72
2022/02/22 01:05:07;;;;;;;5.30;1.70;;;;;;;5.60;88.15;98110.19;5114462;28;20217;-71
2022/02/22 01:07:34;;;;;;;4.57;1.40;;;;;;;5.59;89.16;98124.22;5114111;28;20308;-72
2022/02/22 01:10:00;;;;;;;6.97;1.63;;;;;;;5.55;88.56;98128.78;5077329;28;1068952;-71
2022/02/22 01:12:27;;;;;;;5.77;1.90;;;;;;;5.55;87.07;98134.00;5115345;28;20639;-72
2022/02/22 01:14:55;;;;;;;9.13;2.70;;;;;;;5.47;88.05;98141.41;5115222;28;20214;-72
2022/02/22 01:17:21;;;;;;;6.30;1.90;;;;;;;5.39;89.31;98151.44;5115253;28;20215;-72
2022/02/22 01:19:48;;;;;;;5.40;1.93;;;;;;;5.46;89.05;98150.19;5115145;28;20295;-72
2022/02/22 01:22:15;;;;;;;5.30;1.30;;;;;;;5.28;91.74;98151.09;5115027;28;20206;-72
2022/02/22 01:24:41;;;;;;;4.77;1.50;;;;;;;5.20;93.14;98149.75;5113692;28;20214;-72
2022/02/22 01:27:08;;;;;;;4.70;2.03;;;;;;;5.04;94.71;98172.34;5115118;28;20210;-73
2022/02/22 01:29:35;;;;;;;4.97;1.53;;;;;;;5.04;95.69;98173.19;5115094;28;20233;-72
2022/02/22 01:32:04;;;;;;;6.67;1.50;;;;;;;5.10;95.95;98172.91;5115208;28;20218;-71
2022/02/22 01:34:31;;;;;;;3.83;1.40;;;;;;;5.14;97.00;98184.09;5114922;28;20233;-72
2022/02/22 01:36:57;;;;;;;7.53;2.33;;;;;;;5.11;98.49;98184.22;5114989;28;20214;-71
2022/02/22 01:39:23;;;;;;;3.93;1.87;;;;;;;5.02;99.80;98187.28;5113957;28;20241;-72
2022/02/22 01:41:50;;;;;;;4.50;1.57;;;;;;;4.96;100.00;98191.03;5114887;28;20212;-72
2022/02/22 01:44:17;;;;;;;2.93;1.57;;;;;;;4.92;100.00;98186.88;5114829;28;20221;-71
2022/02/22 01:46:54;;;;;;;4.17;1.50;;;;;;;4.97;100.00;98192.75;5114919;28;20218;-71
2022/02/22 01:49:22;;;;;;;4.03;1.67;;;;;;;5.02;100.00;98201.22;5114295;28;20214;-72
2022/02/22 01:51:48;;;;;;;4.83;1.70;;;;;;;5.12;100.00;98201.66;5113093;28;20216;-71
2022/02/22 01:54:15;;;;;;;4.33;1.60;;;;;;;5.13;100.00;98206.81;5114307;28;20217;-71
2022/02/22 01:56:42;;;;;;;7.03;1.90;;;;;;;5.05;100.00;98208.09;5114349;28;20214;-71
2022/02/22 01:59:08;;;;;;;4.43;2.73;;;;;;;4.93;100.00;98206.88;5113231;28;20585;-72
2022/02/22 02:01:35;;;;;;;5.00;1.63;;;;;;;4.80;100.00;98199.66;5113347;28;20214;-69
2022/02/22 02:04:05;;;;;;;7.53;1.97;;;;;;;4.59;100.00;98208.47;5113832;28;20225;-71
2022/02/22 02:06:33;;;;;;;6.43;2.00;;;;;;;4.35;100.00;98202.53;5113443;28;20227;-69
2022/02/22 02:09:00;;;;;;;5.27;1.63;;;;;;;4.21;100.00;98207.53;5113307;28;20250;-71
2022/02/22 02:11:26;;;;;;;5.47;1.77;;;;;;;4.17;100.00;98192.84;5113941;28;20218;-72
2022/02/22 02:13:53;;;;;;;6.60;1.90;;;;;;;4.35;100.00;98202.53;5114196;28;20210;-71
2022/02/22 02:16:19;;;;;;;6.77;2.20;;;;;;;4.26;100.00;98186.38;5113736;28;20214;-71
2022/02/22 02:18:46;;;;;;;8.03;1.90;;;;;;;4.20;100.00;98191.88;5112126;28;20685;-72
2022/02/22 02:21:15;;;;;;;4.33;1.50;;;;;;;4.23;100.00;98203.06;5113963;28;20249;-72
2022/02/22 02:23:43;;;;;;;5.57;2.30;;;;;;;4.20;100.00;98210.19;5113945;28;20685;-72
2022/02/22 02:26:09;;;;;;;5.97;2.03;;;;;;;4.22;100.00;98209.22;5114007;28;20213;-72
2022/02/22 02:28:35;;;;;;;6.03;2.10;;;;;;;4.23;100.00;98205.69;5113834;28;20206;-72
2022/02/22 02:31:02;;;;;;;7.23;1.80;;;;;;;4.24;100.00;98201.31;5113933;28;20616;-72
2022/02/22 02:33:28;;;;;;;5.87;1.80;;;;;;;4.20;100.00;98207.56;5113875;28;20224;-71
2022/02/22 02:35:55;;;;;;;8.93;2.10;;;;;;;4.18;100.00;98204.19;5113814;28;20240;-71
2022/02/22 02:38:21;;;;;;;4.73;1.97;;;;;;;4.23;100.00;98213.53;5113816;28;20214;-71
2022/02/22 02:40:49;;;;;;;5.97;1.80;;;;;;;4.21;100.00;98204.91;5113746;28;20244;-72
2022/02/22 02:43:15;;;;;;;5.67;1.60;;;;;;;4.19;100.00;98188.44;5112254;28;20220;-72
2022/02/22 02:45:42;;;;;;;6.90;2.10;;;;;;;4.32;100.00;98197.44;5113790;28;20225;-71
2022/02/22 02:48:08;;;;;;;7.20;2.10;;;;;;;4.44;100.00;98207.38;5113665;28;20689;-71
2022/02/22 02:50:36;;;;;;;6.60;1.93;;;;;;;4.51;100.00;98208.81;5113350;28;20218;-71
2022/02/22 02:53:02;;;;;;;6.97;2.20;;;;;;;4.56;100.00;98219.06;5113464;28;20210;-71
2022/02/22 02:55:28;;;;;;;8.13;2.43;;;;;;;4.57;100.00;98213.78;5113653;28;20214;-71
2022/02/22 02:57:56;;;;;;;3.67;1.80;;;;;;;4.50;100.00;98217.59;5113596;28;20221;-71
2022/02/22 03:00:23;;;;;;;5.43;1.70;;;;;;;4.57;100.00;98224.25;5113398;28;20237;-71
2022/02/22 03:02:49;;;;;;;6.87;1.83;;;;;;;4.54;100.00;98218.28;5113473;28;20221;-71
2022/02/22 03:05:18;;;;;;;5.47;1.70;;;;;;;4.53;99.85;98222.66;5113262;28;20217;-72
2022/02/22 03:07:44;;;;;;;6.50;1.80;;;;;;;4.62;98.48;98234.50;5113435;28;20216;-71
2022/02/22 03:10:10;;;;;;;4.30;2.03;;;;;;;4.69;98.17;98244.66;5111599;28;20242;-71
2022/02/22 03:12:37;;;;;;;7.00;1.53;;;;;;;4.71;97.49;98232.31;5113143;28;20214;-71
2022/02/22 03:15:06;;;;;;;6.27;1.63;;;;;;;4.65;98.27;98240.44;5113558;28;20214;-71
2022/02/22 03:17:33;;;;;;;6.17;1.80;;;;;;;4.61;96.95;98262.47;5113358;28;20216;-72
2022/02/22 03:19:59;;;;;;;7.00;1.63;;;;;;;4.68;97.79;98269.13;5113049;28;20241;-72
2022/02/22 03:22:26;;;;;;;6.23;1.83;;;;;;;4.66;98.69;98270.09;5112964;28;20663;-71
2022/02/22 03:24:52;;;;;;;4.03;1.60;;;;;;;4.73;99.08;98277.63;5113111;28;20681;-70
2022/02/22 03:27:18;;;;;;;7.33;2.00;;;;;;;4.66;100.00;98286.69;5113355;28;20218;-70
2022/02/22 03:29:45;;;;;;;4.80;1.83;;;;;;;4.76;100.00;98285.34;5113030;28;20693;-72
2022/02/22 03:32:13;;;;;;;4.43;1.83;;;;;;;4.75;100.00;98281.03;5112734;28;20589;-70
2022/02/22 03:34:39;;;;;;;5.47;2.60;;;;;;;4.67;100.00;98283.13;5113151;28;20213;-70
2022/02/22 03:37:06;;;;;;;3.93;1.70;;;;;;;4.51;100.00;98289.94;5112173;28;20209;-71
2022/02/22 03:39:32;;;;;;;3.37;1.70;;;;;;;4.39;100.00;98280.00;5112666;28;20214;-70
2022/02/22 03:41:59;;;;;;;10.60;1.97;;;;;;;4.34;100.00;98299.44;5112884;28;20213;-70
2022/02/22 03:44:25;;;;;;;4.20;2.00;;;;;;;4.30;100.00;98297.84;5112985;28;20623;-71
2022/02/22 03:46:52;;;;;;;5.27;1.93;;;;;;;4.33;100.00;98297.72;5112376;28;20683;-71
2022/02/22 03:49:20;;;;;;;5.30;2.27;;;;;;;4.38;100.00;98312.31;5112268;28;20221;-71
2022/02/22 03:51:46;;;;;;;4.93;1.70;;;;;;;4.44;100.00;98319.91;5112846;28;20249;-71
2022/02/22 03:54:13;;;;;;;4.80;1.90;;;;;;;4.41;100.00;98311.34;5112403;28;20214;-70
2022/02/22 03:56:39;;;;;;;4.83;2.60;;;;;;;4.38;100.00;98322.78;5112468;28;20214;-70
2022/02/22 03:59:06;;;;;;;2.37;1.70;;;;;;;4.36;100.00;98319.38;5112279;28;20306;-69
2022/02/22 04:01:32;;;;;;;5.50;2.33;;;;;;;4.25;100.00;98313.75;5110651;28;20247;-71
2022/02/22 04:03:59;;;;;;;6.83;2.27;;;;;;;4.21;100.00;98313.94;5116321;28;20218;-72
2022/02/22 04:06:26;;;;;;;5.30;2.10;;;;;;;4.23;100.00;98323.38;5116463;28;20256;-71
2022/02/22 04:08:53;;;;;;;8.17;2.10;;;;;;;4.13;100.00;98329.94;5115706;28;20241;-71
2022/02/22 04:11:19;;;;;;;5.93;2.30;;;;;;;4.14;100.00;98343.84;5116067;28;20220;-71
2022/02/22 04:13:46;;;;;;;3.83;2.40;;;;;;;4.03;100.00;98341.66;5116446;28;20214;-71
2022/02/22 04:16:12;;;;;;;4.17;2.23;;;;;;;3.96;100.00;98334.13;5115824;28;20211;-71
2022/02/22 04:18:39;;;;;;;6.67;2.27;;;;;;;3.94;100.00;98347.28;5116398;28;20221;-73
2022/02/22 04:21:05;;;;;;;6.90;2.30;;;;;;;3.99;100.00;98354.94;5116321;28;20608;-71
2022/02/22 04:23:33;;;;;;;6.60;2.30;;;;;;;4.03;100.00;98359.97;5116318;28;20210;-71
2022/02/22 04:26:00;;;;;;;5.80;2.33;;;;;;;4.12;100.00;98375.31;5116478;28;20213;-70
2022/02/22 04:28:27;;;;;;;9.87;2.50;;;;;;;4.15;100.00;98372.56;5114620;28;20214;-70
2022/02/22 04:30:53;;;;;;;6.77;2.40;;;;;;;4.10;100.00;98377.13;5116554;28;20213;-69
2022/02/22 04:33:20;;;;;;;7.07;2.80;;;;;;;4.07;100.00;98390.34;5116265;28;20220;-70
2022/02/22 04:35:46;;;;;;;4.80;2.90;;;;;;;4.05;100.00;98384.31;5116035;28;20576;-69
2022/02/22 04:38:13;;;;;;;4.20;2.70;;;;;;;3.98;100.00;98385.44;5115944;28;20206;-68
2022/02/22 04:40:41;;;;;;;6.53;3.00;;;;;;;3.95;100.00;98385.56;5115634;28;20246;-69
2022/02/22 04:43:07;;;;;;;5.13;2.83;;;;;;;3.90;100.00;98405.81;5115764;28;20677;-68
2022/02/22 04:45:34;;;;;;;6.80;3.53;;;;;;;3.87;100.00;98411.19;5115777;28;20213;-68
2022/02/22 04:48:00;;;;;;;6.93;3.23;;;;;;;3.75;100.00;98413.38;5115614;28;20225;-68
2022/02/22 04:50:27;;;;;;;6.70;3.27;;;;;;;3.46;100.00;98414.47;5115988;28;20228;-68
2022/02/22 04:52:53;;;;;;;6.43;2.80;;;;;;;3.36;100.00;98418.31;5114205;28;20221;-69
2022/02/22 04:55:20;;;;;;;9.37;3.30;;;;;;;3.24;100.00;98416.16;5115553;28;20213;-68
2022/02/22 04:57:48;;;;;;;4.50;3.00;;;;;;;3.17;100.00;98424.28;5115803;28;20212;-69
2022/02/22 05:00:16;;;;;;;10.07;3.17;;;;;;;3.22;100.00;98432.78;5099313;28;20256;-69
2022/02/22 05:02:43;;;;;;;7.17;3.30;;;;;;;3.13;100.00;98433.94;5115767;28;20215;-69
2022/02/22 05:05:10;;;;;;;7.20;2.90;;;;;;;3.23;100.00;98440.56;5115515;28;20607;-70
2022/02/22 05:07:36;;;;;;;7.23;2.70;;;;;;;3.16;100.00;98449.53;5115533;28;20217;-69
2022/02/22 05:10:03;;;;;;;6.50;2.33;;;;;;;3.09;100.00;98442.81;5115036;28;20247;-69
2022/02/22 05:12:30;;;;;;;10.17;3.20;;;;;;;3.09;100.00;98441.94;5115497;28;20217;-70
2022/02/22 05:14:58;;;;;;;6.13;3.23;;;;;;;3.00;100.00;98443.13;5114210;28;20217;-69
2022/02/22 05:17:24;;;;;;;7.90;3.17;;;;;;;2.96;100.00;98445.91;5115420;28;20220;-70
2022/02/22 05:19:50;;;;;;;6.23;2.60;;;;;;;2.96;100.00;98466.78;5113341;28;20232;-69
2022/02/22 05:22:17;;;;;;;8.13;2.97;;;;;;;2.91;100.00;98466.94;5115259;28;20237;-69
2022/02/22 05:24:44;;;;;;;5.80;3.00;;;;;;;2.92;100.00;98473.00;5115256;28;20307;-69
2022/02/22 05:27:10;;;;;;;8.93;3.03;;;;;;;2.95;100.00;98478.97;5115205;28;20581;-69
2022/02/22 05:29:37;;;;;;;7.43;3.00;;;;;;;2.97;100.00;98473.69;5114773;28;20261;-69
2022/02/22 05:32:05;;;;;;;6.90;2.80;;;;;;;2.96;100.00;98478.09;5115140;28;20213;-69
2022/02/22 05:34:34;;;;;;;6.83;2.60;;;;;;;2.97;100.00;98485.00;5115135;28;20213;-69
2022/02/22 05:37:01;;;;;;;7.80;3.83;;;;;;;2.91;100.00;98485.22;5114944;28;20569;-69
2022/02/22 05:39:28;;;;;;;6.57;2.70;;;;;;;2.88;100.00;98487.91;5114818;28;20245;-69
2022/02/22 05:41:54;;;;;;;6.00;2.97;;;;;;;2.85;100.00;98485.41;5114504;28;20746;-69
2022/02/22 05:44:21;;;;;;;4.80;2.93;;;;;;;2.88;100.00;98485.31;5114431;28;20677;-69
2022/02/22 05:46:47;;;;;;;8.27;2.83;;;;;;;2.88;100.00;98487.91;5113215;28;20217;-69
2022/02/22 05:49:15;;;;;;;6.20;2.60;;;;;;;2.79;100.00;98482.16;5114672;28;20225;-69
2022/02/22 05:51:41;;;;;;;7.00;2.43;;;;;;;2.80;100.00;98487.31;5114746;28;20217;-70
2022/02/22 05:54:08;;;;;;;6.17;2.57;;;;;;;2.80;100.00;98481.22;5114530;28;20221;-69
2022/02/22 05:56:35;;;;;;;7.97;2.50;;;;;;;2.78;100.00;98478.69;5115059;28;20263;-69
2022/02/22 05:59:03;;;;;;;4.97;2.60;;;;;;;2.80;100.00;98484.72;5114572;28;20217;-69
2022/02/22 06:01:31;;;;;;;7.83;2.57;;;;;;;2.71;100.00;98487.63;5113637;28;20827;-69
2022/02/22 06:03:58;;;;;;;8.47;2.93;;;;;;;2.73;100.00;98485.81;5114146;28;20251;-69
2022/02/22 06:06:26;;;;;;;5.53;2.50;;;;;;;2.72;100.00;98497.16;5114191;28;20675;-69
2022/02/22 06:08:52;;;;;;;4.33;2.27;;;;;;;2.71;100.00;98495.47;5114078;28;20335;-70
2022/02/22 06:11:18;;;;;;;5.33;2.30;;;;;;;2.78;100.00;98498.72;5112448;28;20224;-68
2022/02/22 06:13:45;;;;;;;6.60;2.70;;;;;;;2.83;100.00;98505.50;5114378;28;20227;-68
2022/02/22 06:16:11;;;;;;;11.83;2.77;;;;;;;2.82;100.00;98516.81;5114236;28;20212;-69
2022/02/22 06:18:38;;;;;;;8.27;3.10;;;;;;;2.76;100.00;98518.78;5113812;28;20241;-69
2022/02/22 06:21:04;;;;;;;5.17;2.40;;;;;;;2.74;100.00;98518.84;5114283;28;20240;-69
2022/02/22 06:23:32;;;;;;;10.83;2.73;;;;;;;2.76;100.00;98517.03;5114172;28;20213;-69
2022/02/22 06:25:59;;;;;;;6.70;2.23;;;;;;;2.80;100.00;98526.47;5113395;28;20667;-70
2022/02/22 06:28:25;;;;;;;5.50;2.63;;;;;;;2.85;100.00;98521.97;5113968;28;20557;-70
2022/02/22 06:30:52;;;;;;;11.77;2.80;;;;;;;2.82;100.00;98523.81;5113840;28;20231;-69
2022/02/22 06:33:18;;;;;;;7.77;2.50;;;;;;;2.80;100.00;98525.59;5113906;28;20217;-70
2022/02/22 06:35:45;;;;;;;4.73;2.50;;;;;;;2.77;100.00;98533.53;5113954;28;20213;-70
2022/02/22 06:38:11;;;;;;;6.17;2.60;;;;;;;2.75;100.00;98530.16;5112103;28;20209;-70
2022/02/22 06:40:39;;;;;;;5.67;2.50;;;;;;;2.76;100.00;98532.69;5113820;28;20217;-70
2022/02/22 06:43:05;;;;;;;9.20;2.90;;;;;;;2.83;100.00;98525.53;5114012;28;20220;-70
2022/02/22 06:45:32;;;;;;;10.27;3.07;;;;;;;2.84;100.00;98541.13;5114010;28;20220;-70
2022/02/22 06:47:58;;;;;;;8.13;3.07;;;;;;;2.90;100.00;98545.28;5113342;28;20225;-70
2022/02/22 06:50:25;;;;;;;5.80;3.20;;;;;;;2.94;100.00;98542.53;5113740;28;20212;-71
2022/02/22 06:52:52;;;;;;;5.37;3.20;;;;;;;3.04;100.00;98546.56;5113790;28;20218;-70
2022/02/22 06:55:18;;;;;;;8.33;2.80;;;;;;;3.22;100.00;98553.78;5113622;28;20257;-70
2022/02/22 06:57:50;;;;;;;8.43;2.90;;;;;;;3.33;100.00;98558.66;5113527;28;20212;-69
2022/02/22 07:00:18;;;;;;;6.43;3.00;;;;;;;3.33;100.00;98559.50;5097850;28;20281;-70
2022/02/22 07:02:45;;;;;;;5.97;2.77;;;;;;;3.33;100.00;98566.47;5113001;28;20336;-70
2022/02/22 07:05:11;;;;;;;9.27;3.23;;;;;;;3.29;100.00;98576.19;5112536;28;20240;-69
2022/02/22 07:07:38;;;;;;;8.37;3.43;;;;;;;3.27;100.00;98580.59;5113167;28;20214;-69
2022/02/22 07:10:06;;;;;;;12.20;3.87;;;;;;;3.32;100.00;98580.44;5113642;28;20285;-71
2022/02/22 07:12:33;;;;;;;5.77;3.07;;;;;;;3.34;100.00;98595.16;5113075;28;20209;-70
2022/02/22 07:15:01;;;;;;;8.17;3.43;;;;;;;3.49;100.00;98599.03;5113522;28;20228;-69
2022/02/22 07:17:27;;;;;;;8.00;3.40;;;;;;;3.76;100.00;98604.16;5113345;28;20218;-69
2022/02/22 07:19:55;;;;;;;6.83;3.13;;;;;;;3.92;100.00;98605.31;5113714;28;20219;-69
2022/02/22 07:22:21;;;;;;;6.50;3.27;;;;;;;4.13;100.00;98619.41;5113900;28;20243;-69
2022/02/22 07:24:48;;;;;;;7.73;3.60;;;;;;;4.25;100.00;98619.81;5114094;28;20214;-69
2022/02/22 07:27:14;;;;;;;8.97;3.63;;;;;;;4.32;100.00;98620.44;5113589;28;20686;-70
2022/02/22 07:29:41;;;;;;;9.23;3.67;;;;;;;4.27;100.00;98641.53;5111791;28;20228;-69
2022/02/22 07:32:09;;;;;;;7.17;3.27;;;;;;;4.27;100.00;98643.31;5113551;28;20237;-68
2022/02/22 07:34:36;;;;;;;10.83;3.93;;;;;;;4.24;100.00;98657.38;5113463;28;20758;-68
2022/02/22 07:37:03;;;;;;;10.10;3.20;;;;;;;4.44;100.00;98662.72;5114420;28;20615;-71
2022/02/22 07:39:29;;;;;;;9.13;3.30;;;;;;;4.57;100.00;98663.97;5115707;28;20220;-68
2022/02/22 07:41:56;;;;;;;9.97;3.57;;;;;;;4.63;100.00;98675.97;5115795;28;20241;-68
2022/02/22 07:44:22;;;;;;;6.13;3.37;;;;;;;4.74;100.00;98677.28;5115893;28;20218;-68
2022/02/22 07:46:49;;;;;;;7.53;3.27;;;;;;;4.78;100.00;98671.03;5115887;28;20218;-68
2022/02/22 07:49:16;;;;;;;8.60;3.33;;;;;;;4.89;100.00;98676.69;5115128;28;20210;-68
2022/02/22 07:51:43;;;;;;;9.57;3.43;;;;;;;4.98;100.00;98675.50;5115805;28;20214;-68
2022/02/22 07:54:09;;;;;;;8.67;3.33;;;;;;;5.06;100.00;98684.78;5115286;28;20246;-68
2022/02/22 07:56:36;;;;;;;10.63;3.43;;;;;;;5.07;100.00;98676.00;5113898;28;20225;-68
2022/02/22 07:59:02;;;;;;;8.53;3.23;;;;;;;5.04;100.00;98683.13;5115627;28;20676;-68
2022/02/22 08:01:29;;;;;;;9.50;3.27;;;;;;;4.98;100.00;98680.75;5116156;28;20234;-69
2022/02/22 08:03:55;;;;;;;5.33;3.03;;;;;;;4.88;100.00;98688.09;5116325;28;20210;-70
2022/02/22 08:06:25;;;;;;;5.83;2.97;;;;;;;4.81;100.00;98704.09;5116021;28;20222;-69
2022/02/22 08:08:52;;;;;;;10.13;3.30;;;;;;;4.96;100.00;98693.06;5116107;28;20348;-68
2022/02/22 08:11:18;;;;;;;8.47;3.17;;;;;;;5.09;100.00;98697.78;5116647;28;20222;-70
2022/02/22 08:13:45;;;;;;;10.20;3.30;;;;;;;5.11;100.00;98709.03;5116809;28;20210;-69
2022/02/22 08:16:11;;;;;;;7.33;2.83;;;;;;;5.13;100.00;98712.44;5116754;28;20218;-69
2022/02/22 08:18:38;;;;;;;8.60;2.73;;;;;;;5.20;100.00;98728.78;5116385;28;20582;-69
2022/02/22 08:21:05;;;;;;;7.77;2.60;;;;;;;5.22;100.00;98732.19;5115324;28;20214;-69
2022/02/22 08:23:33;;;;;;;10.13;2.57;;;;;;;5.19;100.00;98738.41;5115669;28;20217;-69
2022/02/22 08:26:01;;;;;;;9.63;3.20;;;;;;;5.22;100.00;98735.69;5116199;28;20213;-69
2022/02/22 08:28:27;;;;;;;6.07;2.73;;;;;;;5.27;100.00;98740.75;5116309;28;20206;-69
2022/02/22 08:30:54;;;;;;;10.50;2.70;;;;;;;5.33;100.00;98730.03;5115945;28;20211;-69
2022/02/22 08:33:21;;;;;;;8.00;2.97;;;;;;;5.45;100.00;98745.28;5116260;28;20236;-69
2022/02/22 08:35:47;;;;;;;5.60;2.97;;;;;;;5.64;100.00;98746.25;5116207;28;20210;-69
2022/02/22 08:38:14;;;;;;;8.33;2.57;;;;;;;5.71;98.16;98752.94;5115829;28;20206;-69
2022/02/22 08:40:42;;;;;;;7.00;2.60;;;;;;;5.64;99.27;98741.00;5116226;28;20230;-69
2022/02/22 08:43:08;;;;;;;11.90;2.90;;;;;;;5.76;97.37;98740.50;5115712;28;20712;-69
2022/02/22 08:45:35;;;;;;;11.97;2.70;;;;;;;5.80;98.16;98768.38;5115745;28;20210;-69
2022/02/22 08:48:01;;;;;;;9.07;2.80;;;;;;;5.80;96.68;98752.63;5113794;28;20240;-69
2022/02/22 08:50:28;;;;;;;7.37;2.57;;;;;;;5.89;96.58;98754.88;5115923;28;20220;-70
2022/02/22 08:52:54;;;;;;;10.30;3.20;;;;;;;6.13;95.28;98759.09;5115705;28;20211;-70
2022/02/22 08:55:21;;;;;;;6.63;2.50;;;;;;;6.37;93.37;98756.31;5114229;28;20215;-69
2022/02/22 08:57:49;;;;;;;7.00;3.30;;;;;;;6.56;91.65;98759.88;5113787;28;20210;-69
2022/02/22 09:00:16;;;;;;;10.00;2.80;;;;;;;6.67;89.85;98760.25;5114187;28;20214;-70
2022/02/22 09:02:43;;;;;;;9.10;2.60;;;;;;;6.66;90.06;98748.00;5114418;28;20294;-70
2022/02/22 09:05:10;;;;;;;9.53;2.70;;;;;;;6.63;90.66;98763.91;5115200;28;20210;-70
2022/02/22 09:07:37;;;;;;;6.93;2.60;;;;;;;6.73;90.07;98765.22;5114526;28;20299;-70
2022/02/22 09:10:05;;;;;;;7.83;2.43;;;;;;;6.75;89.36;98768.66;5115201;28;20245;-70
2022/02/22 09:12:33;;;;;;;8.10;2.27;;;;;;;6.81;89.48;98763.13;5115082;28;20214;-70
2022/02/22 09:15:01;;;;;;;10.70;2.50;;;;;;;6.83;89.12;98771.78;5113940;28;20261;-70
2022/02/22 09:17:28;;;;;;;7.97;2.40;;;;;;;6.87;88.57;98768.09;5115225;28;20324;-70
2022/02/22 09:19:54;;;;;;;6.90;2.43;;;;;;;6.90;88.89;98772.38;5115404;28;20218;-70
2022/02/22 09:22:21;;;;;;;10.77;2.53;;;;;;;6.89;88.26;98768.88;5115297;28;20237;-70
2022/02/22 09:24:47;;;;;;;7.13;2.23;;;;;;;7.02;89.52;98767.41;5115429;28;20219;-70
2022/02/22 09:27:14;;;;;;;10.60;2.30;;;;;;;7.07;88.13;98760.16;5113622;28;20223;-70
2022/02/22 09:29:40;;;;;;;8.33;2.50;;;;;;;7.04;87.25;98765.59;5097510;28;20219;-70
2022/02/22 09:32:09;;;;;;;6.63;2.37;;;;;;;7.05;87.05;98756.78;5113623;28;20215;-71
2022/02/22 09:34:35;;;;;;;4.63;2.27;;;;;;;7.06;87.54;98766.34;5113868;28;20218;-71
2022/02/22 09:37:03;;;;;;;5.33;2.53;;;;;;;6.99;87.52;98767.56;5113541;28;20212;-70
2022/02/22 09:39:31;;;;;;;8.90;2.63;;;;;;;7.07;89.14;98772.44;5097080;28;20580;-70
2022/02/22 09:41:57;;;;;;;8.80;2.67;;;;;;;7.09;87.25;98779.34;5111076;28;20244;-71
2022/02/22 09:44:24;;;;;;;10.07;2.43;;;;;;;7.07;88.02;98785.59;5110836;28;20212;-72
2022/02/22 09:46:51;;;;;;;7.63;2.37;;;;;;;7.09;88.09;98783.75;5112674;28;20221;-70
2022/02/22 09:49:19;;;;;;;6.40;2.20;;;;;;;7.10;87.45;98783.72;5112876;28;20215;-70
2022/02/22 09:51:46;;;;;;;7.77;2.50;;;;;;;7.12;87.42;98783.59;5113364;28;20212;-70
2022/02/22 09:54:13;;;;;;;9.13;2.90;;;;;;;7.26;87.73;98784.69;5113261;28;20211;-70
2022/02/22 09:56:43;;;;;;;9.63;2.37;;;;;;;7.46;86.59;98774.09;5113294;28;20270;-70
2022/02/22 09:59:10;;;;;;;7.13;2.40;;;;;;;7.73;85.21;98780.72;5096666;28;20220;-70
2022/02/22 10:01:40;;;;;;;9.13;2.80;;;;;;;7.91;85.20;98782.47;5112771;28;20299;-70
2022/02/22 10:04:07;;;;;;;6.70;2.30;;;;;;;7.98;84.06;98778.59;5113156;28;20317;-70
2022/02/22 10:06:36;;;;;;;6.00;2.57;;;;;;;8.09;84.16;98778.94;5111371;28;20208;-70
2022/02/22 10:09:04;;;;;;;8.63;2.23;;;;;;;7.99;82.96;98775.03;5097026;28;20246;-70
2022/02/22 10:11:34;;;;;;;9.83;2.30;;;;;;;8.08;83.40;98774.59;5113055;28;20222;-70
2022/02/22 10:14:01;;;;;;;8.03;2.77;;;;;;;8.21;81.55;98763.41;5112599;28;20686;-70
2022/02/22 10:16:38;;;;;;;7.57;2.30;;;;;;;8.10;81.47;98772.75;5112876;28;20213;-70
2022/02/22 10:19:04;;;;;;;9.67;2.50;;;;;;;8.04;81.39;98773.03;5112708;28;20597;-71
2022/02/22 10:21:42;;;;;;;9.60;3.17;;;;;;;8.15;80.48;98771.56;5112711;28;20298;-70
2022/02/22 10:24:09;;;;;;;7.43;2.57;;;;;;;8.20;79.95;98779.31;5112718;28;20240;-69
2022/02/22 10:26:35;;;;;;;7.57;2.30;;;;;;;8.29;79.44;98769.16;5112721;28;20218;-69
2022/02/22 10:29:13;;;;;;;10.07;2.40;;;;;;;8.40;80.09;98769.44;5112745;28;20220;-70
2022/02/22 10:31:40;;;;;;;7.53;2.30;;;;;;;8.38;78.93;98765.22;5112766;28;20402;-71
2022/02/22 10:34:06;;;;;;;4.97;2.33;;;;;;;8.44;77.89;98765.75;5110981;28;20212;-71
2022/02/22 10:36:34;;;;;;;6.47;2.40;;;;;;;8.48;78.64;98771.69;5112350;28;20212;-71
2022/02/22 10:39:05;;;;;;;7.53;2.60;;;;;;;8.46;78.66;98757.78;5112682;28;20589;-71
2022/02/22 10:41:36;;;;;;;8.83;2.57;;;;;;;8.53;77.65;98757.38;5112551;28;20213;-71
2022/02/22 10:44:03;;;;;;;5.13;2.33;;;;;;;8.69;77.06;98768.00;5112203;28;20239;-71
2022/02/22 10:46:32;;;;;;;6.53;2.77;;;;;;;8.78;77.01;98772.78;5112472;28;20400;-71
2022/02/22 10:49:04;;;;;;;4.90;2.00;;;;;;;8.77;75.51;98771.06;5112138;28;20214;-71
2022/02/22 10:51:40;;;;;;;5.30;2.10;;;;;;;8.71;76.65;98766.13;5112085;28;20228;-71
2022/02/22 10:54:09;;;;;;;7.03;2.67;;;;;;;8.77;77.38;98768.44;5112304;28;20231;-70
2022/02/22 10:56:37;;;;;;;4.90;2.40;;;;;;;8.85;76.60;98774.16;5112153;28;20209;-70
2022/02/22 10:59:04;;;;;;;7.17;2.50;;;;;;;8.91;77.17;98779.09;5111432;28;20218;-70
2022/02/22 11:01:32;;;;;;;9.27;3.10;;;;;;;8.86;76.33;98767.94;5111717;28;20247;-70
2022/02/22 11:03:59;;;;;;;5.63;2.73;;;;;;;8.85;77.04;98771.50;5111677;28;20233;-70
2022/02/22 11:06:26;;;;;;;6.50;2.93;;;;;;;8.75;77.42;98772.94;5112343;28;20248;-71
2022/02/22 11:08:54;;;;;;;8.13;2.40;;;;;;;8.60;79.04;98774.59;5112171;28;20245;-70
2022/02/22 11:11:33;;;;;;;7.63;2.00;;;;;;;8.46;80.45;98781.47;5113681;28;20577;-70
2022/02/22 11:14:02;;;;;;;10.63;2.93;;;;;;;8.30;81.05;98784.03;5116418;28;20206;-70
2022/02/22 11:16:40;;;;;;;8.70;2.33;;;;;;;8.20;82.05;98782.78;5116172;28;20467;-71
2022/02/22 11:19:17;;;;;;;8.63;2.50;;;;;;;8.18;81.55;98770.56;5116322;28;20245;-70
2022/02/22 11:21:45;;;;;;;11.03;3.43;;;;;;;8.21;82.61;98767.84;5115999;28;20299;-71
2022/02/22 11:24:12;;;;;;;7.03;2.30;;;;;;;8.24;83.58;98759.75;5116171;28;20240;-71
2022/02/22 11:26:49;;;;;;;11.80;2.73;;;;;;;8.26;82.62;98760.56;5114457;28;20225;-70
2022/02/22 11:29:17;;;;;;;6.07;2.57;;;;;;;8.26;83.24;98757.94;5116229;28;20584;-70
2022/02/22 11:31:57;;;;;;;8.57;2.70;;;;;;;8.29;82.85;98747.22;5116172;28;20566;-70
2022/02/22 11:34:31;;;;;;;8.83;2.93;;;;;;;8.26;83.30;98753.50;5116064;28;20217;-71
2022/02/22 11:36:59;;;;;;;9.57;3.93;;;;;;;8.43;81.71;98753.50;5116086;28;20213;-71